Time;durP1;ratioP1;P1;durP2;ratioP2;P2;SDS_P1;SDS_P2;PMS_P1;PMS_P2;Temp;Humidity;BMP_temperature;BMP_pressure;BME280_temperature;BME280_humidity;BME280_pressure;Samples;Min_cycle;Max_cycle;Signal;HPM_P1;HPM_P2
2024/01/17 00:02:09;;;;;;;0.10;0.10;;;;;;;-2.26;100.00;97895.22;5012830;28;20264;-52
2024/01/17 00:04:56;;;;;;;0.10;0.10;;;;;;;-2.46;100.00;97893.28;5024216;28;20213;-52
2024/01/17 00:07:43;;;;;;;0.10;0.10;;;;;;;-2.71;100.00;97890.59;5032837;28;20289;-53
2024/01/17 00:10:30;;;;;;;0.10;0.10;;;;;;;-2.91;100.00;97886.03;5032669;28;20204;-52
2024/01/17 00:13:17;;;;;;;0.10;0.10;;;;;;;-3.01;100.00;97879.44;5031275;28;20275;-53
2024/01/17 00:16:05;;;;;;;0.10;0.10;;;;;;;-2.51;100.00;97872.69;4993425;28;20322;-52
2024/01/17 00:18:54;;;;;;;0.10;0.10;;;;;;;-2.58;100.00;97862.56;4993364;28;20198;-53
2024/01/17 00:21:42;;;;;;;0.10;0.10;;;;;;;-2.69;100.00;97857.75;4993254;28;20310;-52
2024/01/17 00:24:28;;;;;;;0.10;0.10;;;;;;;-2.95;100.00;97845.59;5007363;28;20201;-52
2024/01/17 00:27:16;;;;;;;0.10;0.10;;;;;;;-2.92;100.00;97846.34;5032627;28;20670;-52
2024/01/17 00:30:04;;;;;;;0.10;0.10;;;;;;;-2.91;100.00;97834.22;5032521;28;20739;-52
2024/01/17 00:32:51;;;;;;;0.10;0.10;;;;;;;-3.18;100.00;97836.81;5014067;28;20320;-52
2024/01/17 00:35:39;;;;;;;0.10;0.10;;;;;;;-2.97;100.00;97831.84;5029240;28;20193;-52
2024/01/17 00:38:26;;;;;;;0.10;0.10;;;;;;;-2.93;100.00;97839.47;5032365;28;20308;-52
2024/01/17 00:41:14;;;;;;;0.10;0.10;;;;;;;-2.56;100.00;97821.91;5032469;28;20208;-52
2024/01/17 00:44:04;;;;;;;0.00;0.00;;;;;;;-2.92;100.00;97819.59;5027699;28;20333;-52
2024/01/17 00:46:51;;;;;;;0.10;0.10;;;;;;;-2.91;100.00;97810.94;5016244;28;20209;-52
2024/01/17 00:49:39;;;;;;;0.07;0.07;;;;;;;-3.07;100.00;97813.19;5016224;28;20201;-52
2024/01/17 00:52:27;;;;;;;0.10;0.10;;;;;;;-3.15;100.00;97804.78;5016204;28;20189;-52
2024/01/17 00:55:14;;;;;;;0.10;0.10;;;;;;;-3.27;100.00;97803.44;5024284;28;20206;-52
2024/01/17 00:58:01;;;;;;;0.10;0.10;;;;;;;-3.32;100.00;97805.31;5017369;28;20704;-52
2024/01/17 01:00:47;;;;;;;0.10;0.10;;;;;;;-3.33;100.00;97805.34;5015997;28;20201;-52
2024/01/17 01:03:34;;;;;;;0.10;0.10;;;;;;;-3.24;100.00;97805.91;5015489;28;20225;-52
2024/01/17 01:06:21;;;;;;;0.10;0.10;;;;;;;-2.63;100.00;97801.38;4996413;28;20206;-52
2024/01/17 01:09:10;;;;;;;0.10;0.10;;;;;;;-2.63;100.00;97797.94;4996308;28;20198;-52
2024/01/17 01:11:57;;;;;;;0.10;0.10;;;;;;;-2.92;100.00;97806.66;4996259;28;20201;-52
2024/01/17 01:14:44;;;;;;;0.03;0.03;;;;;;;-2.74;100.00;97800.88;5011699;28;20193;-52
2024/01/17 01:17:31;;;;;;;0.10;0.10;;;;;;;-2.89;100.00;97783.25;5035441;28;20197;-52
2024/01/17 01:20:18;;;;;;;0.10;0.10;;;;;;;-2.51;100.00;97773.34;5035517;28;20678;-52
2024/01/17 01:23:05;;;;;;;0.10;0.10;;;;;;;-2.53;100.00;97765.63;5035309;28;20694;-52
2024/01/17 01:25:53;;;;;;;0.10;0.10;;;;;;;-1.93;100.00;97761.78;5017689;28;20201;-53
2024/01/17 01:28:40;;;;;;;0.00;0.00;;;;;;;-2.44;100.00;97756.69;5014241;28;20197;-52
2024/01/17 01:31:27;;;;;;;0.10;0.10;;;;;;;-2.51;100.00;97762.97;5015502;28;20205;-52
2024/01/17 01:34:14;;;;;;;0.07;0.07;;;;;;;-2.63;100.00;97756.47;5019483;28;20235;-52
2024/01/17 01:37:04;;;;;;;0.00;0.00;;;;;;;-2.90;100.00;97761.66;5035208;28;20200;-52
2024/01/17 01:39:50;;;;;;;0.10;0.10;;;;;;;-3.05;100.00;97761.34;5035169;28;20193;-51
2024/01/17 01:42:43;;;;;;;0.10;0.10;;;;;;;-3.01;100.00;97760.31;5033468;28;20197;-52
2024/01/17 01:45:29;;;;;;;0.10;0.10;;;;;;;-2.85;100.00;97747.72;5020746;28;20274;-52
2024/01/17 01:48:16;;;;;;;0.10;0.10;;;;;;;-2.56;100.00;97741.56;5015333;28;20189;-52
2024/01/17 01:51:04;;;;;;;0.10;0.10;;;;;;;-3.04;100.00;97744.91;5014976;28;20198;-52
2024/01/17 01:53:54;;;;;;;0.10;0.10;;;;;;;-3.09;100.00;97739.84;5015713;28;20198;-51
2024/01/17 01:56:41;;;;;;;0.10;0.10;;;;;;;-2.88;100.00;97734.00;5033947;28;20197;-53
2024/01/17 01:59:29;;;;;;;0.10;0.10;;;;;;;-2.80;100.00;97741.47;5033251;28;20193;-52
2024/01/17 02:02:17;;;;;;;0.10;0.10;;;;;;;-3.00;100.00;97734.38;5034554;28;20236;-52
2024/01/17 02:05:05;;;;;;;0.10;0.10;;;;;;;-2.90;100.00;97735.75;5013853;28;20198;-52
2024/01/17 02:07:52;;;;;;;0.10;0.10;;;;;;;-2.82;100.00;97730.34;4995082;28;20194;-52
2024/01/17 02:10:39;;;;;;;0.10;0.10;;;;;;;-2.99;100.00;97722.28;4995122;28;20201;-52
2024/01/17 02:13:26;;;;;;;0.00;0.00;;;;;;;-3.02;100.00;97714.63;4993930;28;20729;-52
2024/01/17 02:16:16;;;;;;;0.10;0.10;;;;;;;-3.09;100.00;97713.97;5034161;28;20224;-52
2024/01/17 02:19:03;;;;;;;0.00;0.00;;;;;;;-3.33;100.00;97717.34;5034490;28;20197;-52
2024/01/17 02:21:50;;;;;;;0.10;0.10;;;;;;;-3.47;100.00;97702.28;5034316;28;20209;-52
2024/01/17 02:24:38;;;;;;;0.10;0.10;;;;;;;-3.40;100.00;97697.72;5020911;28;20217;-53
2024/01/17 02:27:25;;;;;;;0.10;0.10;;;;;;;-3.40;100.00;97700.31;4994903;28;20201;-52
2024/01/17 02:30:15;;;;;;;0.10;0.10;;;;;;;-3.57;100.00;97687.91;4994867;28;20242;-52
2024/01/17 02:33:02;;;;;;;0.10;0.10;;;;;;;-3.73;100.00;97684.97;5005234;28;20213;-52
2024/01/17 02:35:49;;;;;;;0.10;0.10;;;;;;;-3.81;100.00;97677.44;5014287;28;20206;-52
2024/01/17 02:38:36;;;;;;;0.10;0.10;;;;;;;-3.62;100.00;97669.97;5014232;28;20272;-51
2024/01/17 02:41:24;;;;;;;0.10;0.10;;;;;;;-3.07;100.00;97673.34;5014221;28;20328;-51
2024/01/17 02:44:11;;;;;;;0.10;0.10;;;;;;;-3.17;100.00;97669.38;5015180;28;20226;-52
2024/01/17 02:46:58;;;;;;;0.10;0.10;;;;;;;-3.17;100.00;97659.03;5033975;28;20197;-52
2024/01/17 02:49:44;;;;;;;0.00;0.00;;;;;;;-3.34;100.00;97661.31;5033795;28;20196;-52
2024/01/17 02:52:32;;;;;;;0.07;0.07;;;;;;;-2.95;100.00;97651.38;5033738;28;20192;-52
2024/01/17 02:55:19;;;;;;;0.10;0.10;;;;;;;-3.24;100.00;97650.59;5010290;28;20221;-52
2024/01/17 02:58:07;;;;;;;0.10;0.10;;;;;;;-3.57;100.00;97638.75;5005422;28;20628;-52
2024/01/17 03:00:54;;;;;;;0.10;0.10;;;;;;;-3.66;100.00;97626.16;5033506;28;20221;-52
2024/01/17 03:03:41;;;;;;;0.10;0.10;;;;;;;-3.69;100.00;97618.47;5033075;28;20240;-52
2024/01/17 03:06:27;;;;;;;0.10;0.10;;;;;;;-3.26;100.00;97612.75;5018306;28;20200;-52
2024/01/17 03:09:14;;;;;;;0.10;0.10;;;;;;;-3.39;100.00;97607.09;5033527;28;20775;-52
2024/01/17 03:12:01;;;;;;;0.10;0.10;;;;;;;-3.52;100.00;97601.50;5033312;28;20200;-52
2024/01/17 03:14:50;;;;;;;0.10;0.10;;;;;;;-3.37;100.00;97604.50;5017613;28;20766;-52
2024/01/17 03:17:37;;;;;;;0.10;0.10;;;;;;;-3.64;100.00;97595.91;4993966;28;20198;-51
2024/01/17 03:20:23;;;;;;;0.10;0.10;;;;;;;-3.58;100.00;97590.50;4993964;28;20243;-52
2024/01/17 03:23:10;;;;;;;0.00;0.00;;;;;;;-3.71;100.00;97591.81;4993876;28;20194;-52
2024/01/17 03:25:57;;;;;;;0.10;0.10;;;;;;;-3.21;100.00;97582.34;5026714;28;20283;-52
2024/01/17 03:28:44;;;;;;;0.00;0.00;;;;;;;-2.85;100.00;97571.59;5031782;28;20195;-52
2024/01/17 03:31:33;;;;;;;0.10;0.10;;;;;;;-3.03;100.00;97562.75;5033129;28;20328;-52
2024/01/17 03:34:20;;;;;;;0.10;0.10;;;;;;;-3.34;100.00;97558.66;5027032;28;20267;-52
2024/01/17 03:37:06;;;;;;;0.10;0.10;;;;;;;-3.19;100.00;97545.16;4993718;28;20325;-52
2024/01/17 03:39:54;;;;;;;0.10;0.10;;;;;;;-3.21;100.00;97549.53;4993706;28;20204;-52
2024/01/17 03:42:41;;;;;;;0.10;0.10;;;;;;;-3.38;100.00;97546.69;4992383;28;20202;-52
2024/01/17 03:45:28;;;;;;;0.10;0.10;;;;;;;-3.53;100.00;97536.88;5017543;28;20220;-52
2024/01/17 03:48:16;;;;;;;0.10;0.10;;;;;;;-3.67;100.00;97529.56;5032915;28;20236;-52
2024/01/17 03:51:03;;;;;;;0.10;0.10;;;;;;;-3.88;100.00;97520.78;5032863;28;20184;-52
2024/01/17 03:53:50;;;;;;;0.10;0.10;;;;;;;-3.98;100.00;97521.97;5032990;28;20196;-52
2024/01/17 03:56:37;;;;;;;0.10;0.10;;;;;;;-3.89;100.00;97526.00;4993637;28;20310;-52
2024/01/17 03:59:24;;;;;;;0.10;0.10;;;;;;;-3.68;100.00;97516.69;4992177;28;20291;-52
2024/01/17 04:02:11;;;;;;;0.10;0.10;;;;;;;-3.78;100.00;97524.75;4993168;28;20237;-52
2024/01/17 04:05:00;;;;;;;0.10;0.10;;;;;;;-3.68;100.00;97512.38;5001020;28;20213;-52
2024/01/17 04:07:46;;;;;;;0.10;0.10;;;;;;;-3.67;100.00;97514.03;5012793;28;20571;-51
2024/01/17 04:10:33;;;;;;;0.10;0.10;;;;;;;-3.80;100.00;97505.88;4997934;28;20197;-52
2024/01/17 04:13:20;;;;;;;0.00;0.00;;;;;;;-3.86;100.00;97500.91;5011676;28;20288;-52
2024/01/17 04:16:07;;;;;;;0.10;0.10;;;;;;;-3.89;100.00;97485.50;5030181;28;20336;-52
2024/01/17 04:18:54;;;;;;;0.10;0.10;;;;;;;-3.56;100.00;97490.44;5032658;28;20196;-52
2024/01/17 04:21:42;;;;;;;0.10;0.10;;;;;;;-3.65;100.00;97481.25;5036448;28;20201;-52
2024/01/17 04:24:29;;;;;;;0.10;0.10;;;;;;;-3.41;100.00;97476.94;5024467;28;20218;-52
2024/01/17 04:27:16;;;;;;;0.10;0.10;;;;;;;-3.50;100.00;97472.09;5016774;28;20276;-52
2024/01/17 04:30:04;;;;;;;0.10;0.10;;;;;;;-3.21;100.00;97453.75;5016706;28;20198;-52
2024/01/17 04:32:52;;;;;;;0.10;0.10;;;;;;;-3.32;100.00;97449.88;5016741;28;20282;-52
2024/01/17 04:35:38;;;;;;;0.10;0.10;;;;;;;-3.45;100.00;97441.72;5016519;28;20669;-52
2024/01/17 04:38:27;;;;;;;0.10;0.10;;;;;;;-3.59;100.00;97444.78;5016510;28;20256;-52
2024/01/17 04:41:15;;;;;;;0.10;0.10;;;;;;;-3.69;100.00;97443.44;5016448;28;20264;-52
2024/01/17 04:44:02;;;;;;;0.10;0.10;;;;;;;-3.99;100.00;97441.91;5015053;28;20209;-51
2024/01/17 04:46:49;;;;;;;0.10;0.10;;;;;;;-3.91;100.00;97433.00;5016379;28;20209;-52
2024/01/17 04:49:36;;;;;;;0.00;0.00;;;;;;;-3.82;100.00;97419.75;5016312;28;20198;-52
2024/01/17 04:52:23;;;;;;;0.10;0.10;;;;;;;-3.61;100.00;97407.78;5015905;28;20193;-52
2024/01/17 04:55:13;;;;;;;0.10;0.10;;;;;;;-3.91;100.00;97395.94;5005284;28;20197;-52
2024/01/17 04:58:00;;;;;;;0.00;0.00;;;;;;;-3.74;100.00;97398.78;5014906;28;20193;-52
2024/01/17 05:00:47;;;;;;;0.10;0.10;;;;;;;-4.01;100.00;97385.09;5016170;28;20193;-52
2024/01/17 05:03:34;;;;;;;0.10;0.10;;;;;;;-3.87;100.00;97380.25;5015671;28;20233;-52
2024/01/17 05:06:21;;;;;;;0.07;0.07;;;;;;;-3.96;100.00;97378.00;5033652;28;20221;-52
2024/01/17 05:09:08;;;;;;;0.10;0.10;;;;;;;-4.03;100.00;97374.81;5029620;28;20695;-52
2024/01/17 05:11:58;;;;;;;0.10;0.10;;;;;;;-4.11;100.00;97368.22;5035621;28;20216;-52
2024/01/17 05:14:45;;;;;;;0.10;0.10;;;;;;;-4.10;100.00;97351.81;5024378;28;20271;-52
2024/01/17 05:17:31;;;;;;;0.10;0.10;;;;;;;-4.06;100.00;97346.47;4996003;28;20262;-53
2024/01/17 05:20:18;;;;;;;0.10;0.10;;;;;;;-4.25;100.00;97344.56;4996148;28;20253;-51
2024/01/17 05:23:06;;;;;;;0.00;0.00;;;;;;;-3.66;100.00;97333.88;4996127;28;20265;-52
2024/01/17 05:25:52;;;;;;;0.10;0.10;;;;;;;-3.74;100.00;97328.97;5023633;28;20220;-52
2024/01/17 05:28:41;;;;;;;0.10;0.10;;;;;;;-3.62;100.00;97325.09;5033899;28;20192;-52
2024/01/17 05:31:27;;;;;;;0.10;0.10;;;;;;;-3.73;100.00;97320.31;5034042;28;20260;-51
2024/01/17 05:34:15;;;;;;;0.10;0.10;;;;;;;-3.66;100.00;97311.44;5033963;28;20682;-52
2024/01/17 05:37:03;;;;;;;0.10;0.10;;;;;;;-3.25;100.00;97306.44;4995884;28;20206;-52
2024/01/17 05:39:49;;;;;;;0.10;0.10;;;;;;;-3.54;100.00;97294.59;4995787;28;20326;-52
2024/01/17 05:42:37;;;;;;;0.00;0.00;;;;;;;-3.75;100.00;97291.09;4994321;28;20194;-52
2024/01/17 05:45:25;;;;;;;0.10;0.10;;;;;;;-3.63;100.00;97282.84;5015058;28;20787;-52
2024/01/17 05:48:12;;;;;;;0.10;0.10;;;;;;;-3.58;100.00;97277.50;5035080;28;20193;-52
2024/01/17 05:50:59;;;;;;;0.10;0.10;;;;;;;-3.69;100.00;97275.31;5035037;28;20216;-51
2024/01/17 05:53:46;;;;;;;0.10;0.10;;;;;;;-3.68;100.00;97279.59;5034997;28;20201;-52
2024/01/17 05:56:34;;;;;;;0.10;0.10;;;;;;;-3.84;100.00;97271.56;4996594;28;20198;-51
2024/01/17 05:59:21;;;;;;;0.10;0.10;;;;;;;-3.77;100.00;97273.00;4993999;28;20680;-52
2024/01/17 06:02:09;;;;;;;0.10;0.10;;;;;;;-3.49;100.00;97271.97;5001356;28;20229;-52
2024/01/17 06:04:56;;;;;;;0.10;0.10;;;;;;;-3.49;100.00;97257.28;5020533;28;20228;-52
2024/01/17 06:07:44;;;;;;;0.10;0.10;;;;;;;-3.28;100.00;97249.59;5034485;28;20257;-52
2024/01/17 06:10:31;;;;;;;0.00;0.00;;;;;;;-3.24;100.00;97252.00;5034600;28;20192;-52
2024/01/17 06:13:18;;;;;;;0.10;0.10;;;;;;;-3.17;100.00;97245.69;5033254;28;20209;-52
2024/01/17 06:16:05;;;;;;;0.10;0.10;;;;;;;-3.43;100.00;97243.28;5018809;28;20209;-52
2024/01/17 06:18:54;;;;;;;0.10;0.10;;;;;;;-3.59;100.00;97230.09;5014677;28;20299;-52
2024/01/17 06:21:42;;;;;;;0.10;0.10;;;;;;;-3.47;100.00;97221.03;4999584;28;20200;-52
2024/01/17 06:24:29;;;;;;;0.10;0.10;;;;;;;-3.36;100.00;97220.59;5016233;28;20289;-52
2024/01/17 06:27:17;;;;;;;0.00;0.00;;;;;;;-3.23;100.00;97214.88;5034289;28;20200;-52
2024/01/17 06:30:04;;;;;;;0.00;0.00;;;;;;;-3.35;100.00;97211.94;5034277;28;20312;-51
2024/01/17 06:32:51;;;;;;;0.10;0.10;;;;;;;-3.34;100.00;97216.22;5034031;28;20719;-52
2024/01/17 06:35:39;;;;;;;0.10;0.10;;;;;;;-3.54;100.00;97204.91;5022996;28;20241;-52
2024/01/17 06:38:26;;;;;;;0.10;0.10;;;;;;;-3.21;100.00;97194.09;5014315;28;20289;-52
2024/01/17 06:41:12;;;;;;;0.10;0.10;;;;;;;-3.25;100.00;97187.38;5014256;28;20237;-52
2024/01/17 06:44:00;;;;;;;0.10;0.10;;;;;;;-3.03;100.00;97180.41;5012583;28;20317;-52
2024/01/17 06:46:46;;;;;;;0.10;0.10;;;;;;;-2.70;100.00;97177.28;4994278;28;20321;-51
2024/01/17 06:49:35;;;;;;;0.10;0.10;;;;;;;-2.73;100.00;97178.25;5031752;28;20208;-52
2024/01/17 06:52:24;;;;;;;0.10;0.10;;;;;;;-2.68;100.00;97176.31;5033793;28;20201;-52
2024/01/17 06:55:10;;;;;;;0.10;0.10;;;;;;;-3.01;100.00;97170.81;5026880;28;20329;-52
2024/01/17 06:57:58;;;;;;;0.10;0.10;;;;;;;-3.40;100.00;97157.78;5012615;28;20264;-52
2024/01/17 07:00:45;;;;;;;0.10;0.10;;;;;;;-3.48;100.00;97165.84;5013932;28;20205;-52
2024/01/17 07:03:32;;;;;;;0.03;0.03;;;;;;;-3.39;100.00;97161.19;5013545;28;20404;-52
2024/01/17 07:06:19;;;;;;;0.10;0.10;;;;;;;-3.25;100.00;97154.56;5029578;28;20291;-52
2024/01/17 07:09:08;;;;;;;0.10;0.10;;;;;;;-2.68;100.00;97157.34;5033471;28;20201;-52
2024/01/17 07:11:55;;;;;;;0.10;0.10;;;;;;;-2.47;100.00;97161.59;5031645;28;20193;-52
2024/01/17 07:14:43;;;;;;;0.10;0.10;;;;;;;-2.99;100.00;97168.16;4998297;28;20287;-51
2024/01/17 07:17:29;;;;;;;0.10;0.10;;;;;;;-2.76;100.00;97156.84;5033314;28;20227;-52
2024/01/17 07:20:16;;;;;;;0.10;0.10;;;;;;;-2.28;100.00;97160.75;5033431;28;20201;-52
2024/01/17 07:23:04;;;;;;;0.10;0.10;;;;;;;-2.17;100.00;97150.75;5033278;28;20210;-52
2024/01/17 07:25:52;;;;;;;0.10;0.10;;;;;;;-2.43;100.00;97157.94;5021002;28;20237;-52
2024/01/17 07:28:39;;;;;;;0.10;0.10;;;;;;;-1.98;100.00;97156.78;5012183;28;20284;-52
2024/01/17 07:31:26;;;;;;;0.10;0.10;;;;;;;-2.16;100.00;97153.25;5013467;28;20201;-52
2024/01/17 07:34:13;;;;;;;0.10;0.10;;;;;;;-2.51;100.00;97146.22;5013453;28;20265;-52
2024/01/17 07:37:00;;;;;;;0.00;0.00;;;;;;;-2.61;100.00;97146.66;4993822;28;20558;-52
2024/01/17 07:39:47;;;;;;;0.03;0.03;;;;;;;-2.63;100.00;97138.09;4993802;28;20197;-52
2024/01/17 07:42:35;;;;;;;0.10;0.10;;;;;;;-2.57;100.00;97125.78;4992466;28;20194;-52
2024/01/17 07:45:22;;;;;;;0.10;0.10;;;;;;;-1.87;100.00;97132.94;5009048;28;20209;-52
2024/01/17 07:48:09;;;;;;;0.07;0.07;;;;;;;-2.42;100.00;97123.31;5032951;28;20212;-52
2024/01/17 07:50:56;;;;;;;0.10;0.10;;;;;;;-2.42;100.00;97117.31;5032459;28;20257;-52
2024/01/17 07:53:43;;;;;;;0.10;0.10;;;;;;;-2.18;100.00;97107.59;5032940;28;20289;-52
2024/01/17 07:56:30;;;;;;;0.10;0.10;;;;;;;-2.20;100.00;97105.06;5015663;28;20197;-52
2024/01/17 07:59:18;;;;;;;0.00;0.00;;;;;;;-2.58;100.00;97082.66;5011810;28;20193;-52
2024/01/17 08:02:05;;;;;;;0.10;0.10;;;;;;;-2.43;100.00;97089.72;5012865;28;20229;-52
2024/01/17 08:04:53;;;;;;;0.10;0.10;;;;;;;-1.79;100.00;97073.75;5016453;28;20204;-52
2024/01/17 08:07:40;;;;;;;0.10;0.10;;;;;;;-1.81;100.00;97073.81;5032427;28;20275;-52
2024/01/17 08:10:27;;;;;;;0.10;0.10;;;;;;;-1.57;100.00;97063.97;5032743;28;20200;-51
2024/01/17 08:13:14;;;;;;;0.10;0.10;;;;;;;-1.88;100.00;97056.03;5025588;28;20201;-52
2024/01/17 08:16:02;;;;;;;0.10;0.10;;;;;;;-1.68;100.00;97053.31;5025470;28;20193;-52
2024/01/17 08:18:50;;;;;;;0.10;0.10;;;;;;;-1.83;100.00;97044.53;5032519;28;20196;-52
2024/01/17 08:21:37;;;;;;;0.00;0.00;;;;;;;-2.06;100.00;97043.03;5032408;28;20707;-52
2024/01/17 08:24:24;;;;;;;0.10;0.10;;;;;;;-2.02;100.00;97026.41;5032571;28;20193;-52
2024/01/17 08:27:11;;;;;;;0.10;0.10;;;;;;;-1.12;100.00;97018.47;4992708;28;20218;-52
2024/01/17 08:29:58;;;;;;;0.10;0.10;;;;;;;-1.90;100.00;97013.75;4993160;28;20248;-52
2024/01/17 08:32:47;;;;;;;0.00;0.00;;;;;;;-1.83;100.00;97004.78;4993151;28;20257;-52
2024/01/17 08:35:33;;;;;;;0.10;0.10;;;;;;;-1.86;100.00;97005.75;5010187;28;20221;-52
2024/01/17 08:38:20;;;;;;;0.10;0.10;;;;;;;-1.78;100.00;96995.00;5017514;28;20189;-52
2024/01/17 08:41:08;;;;;;;0.10;0.10;;;;;;;-1.74;100.00;96981.81;5049356;28;20706;-52
2024/01/17 08:43:54;;;;;;;0.10;0.10;;;;;;;-1.33;100.00;96970.25;5051066;28;20204;-52
2024/01/17 08:46:45;;;;;;;0.10;0.10;;;;;;;-1.59;100.00;96971.56;5034233;28;20213;-52
2024/01/17 08:49:33;;;;;;;0.10;0.10;;;;;;;-1.23;100.00;96963.66;5032378;28;20205;-52
2024/01/17 08:52:20;;;;;;;0.10;0.10;;;;;;;-1.26;100.00;96959.44;5032044;28;20192;-52
2024/01/17 08:55:09;;;;;;;0.10;0.10;;;;;;;-1.27;100.00;96954.31;5037004;28;20311;-52
2024/01/17 08:57:56;;;;;;;0.10;0.10;;;;;;;-1.22;100.00;96944.56;5033129;28;20189;-52
2024/01/17 09:00:43;;;;;;;0.10;0.10;;;;;;;-0.95;100.00;96944.84;5017295;28;20196;-52
2024/01/17 09:03:32;;;;;;;0.10;0.10;;;;;;;-1.13;100.00;96938.03;5031923;28;20229;-52
2024/01/17 09:06:20;;;;;;;0.10;0.10;;;;;;;-1.03;100.00;96934.88;5047889;28;20208;-52
2024/01/17 09:09:11;;;;;;;0.10;0.10;;;;;;;-0.99;100.00;96923.38;5055470;28;20755;-52
2024/01/17 09:11:58;;;;;;;0.10;0.10;;;;;;;-0.75;100.00;96923.81;5052302;28;20199;-53
2024/01/17 09:14:45;;;;;;;0.10;0.10;;;;;;;-0.73;100.00;96924.56;5053927;28;20327;-52
2024/01/17 09:17:32;;;;;;;0.10;0.10;;;;;;;-0.66;100.00;96912.09;5035582;28;20272;-52
2024/01/17 09:20:20;;;;;;;0.10;0.10;;;;;;;-0.46;100.00;96914.41;5035504;28;20209;-53
2024/01/17 09:23:09;;;;;;;0.10;0.10;;;;;;;-0.61;100.00;96899.66;5035644;28;20197;-52
2024/01/17 09:25:55;;;;;;;0.10;0.10;;;;;;;-0.55;100.00;96903.69;5046245;28;20208;-52
2024/01/17 09:28:42;;;;;;;0.10;0.10;;;;;;;-0.54;100.00;96887.16;5054064;28;20195;-52
2024/01/17 09:31:29;;;;;;;0.10;0.10;;;;;;;-0.61;100.00;96886.66;5055291;28;20192;-52
2024/01/17 09:34:16;;;;;;;0.10;0.10;;;;;;;-0.55;100.00;96875.94;5055044;28;20331;-52
2024/01/17 09:37:05;;;;;;;0.10;0.10;;;;;;;-0.66;100.00;96871.34;5015501;28;20198;-52
2024/01/17 09:39:53;;;;;;;0.10;0.10;;;;;;;-0.53;100.00;96868.03;5015531;28;20237;-52
2024/01/17 09:42:41;;;;;;;0.00;0.00;;;;;;;-0.31;100.00;96858.09;5013787;28;20202;-52
2024/01/17 09:45:31;;;;;;;0.10;0.10;;;;;;;-0.04;100.00;96851.28;5001320;28;20186;-52
2024/01/17 09:48:19;;;;;;;0.10;0.10;;;;;;;-0.41;100.00;96860.38;5014912;28;20221;-52
2024/01/17 09:51:06;;;;;;;0.00;0.00;;;;;;;-0.38;100.00;96851.59;5014989;28;20241;-52
2024/01/17 09:53:59;;;;;;;0.10;0.10;;;;;;;-0.43;100.00;96859.63;5015101;28;20652;-52
2024/01/17 09:56:50;;;;;;;0.10;0.10;;;;;;;-0.55;100.00;96849.09;5049910;28;20204;-52
2024/01/17 09:59:46;;;;;;;0.10;0.10;;;;;;;-0.63;100.00;96850.38;5053396;28;20755;-52
2024/01/17 10:02:34;;;;;;;0.10;0.10;;;;;;;-0.45;100.00;96845.06;5054357;28;20232;-52
2024/01/17 10:05:22;;;;;;;0.00;0.00;;;;;;;-0.73;100.00;96840.56;5043587;28;20205;-52
2024/01/17 10:08:09;;;;;;;0.10;0.10;;;;;;;-0.56;100.00;96840.47;5033863;28;20344;-52
2024/01/17 10:10:56;;;;;;;0.10;0.10;;;;;;;-0.61;100.00;96835.50;5034452;28;20237;-52
2024/01/17 10:13:44;;;;;;;0.00;0.00;;;;;;;-0.48;100.00;96827.00;5033040;28;20200;-52
2024/01/17 10:16:32;;;;;;;0.10;0.10;;;;;;;-0.52;100.00;96818.56;5049528;28;20196;-52
2024/01/17 10:19:18;;;;;;;0.10;0.10;;;;;;;-0.12;100.00;96817.06;5053607;28;20196;-52
2024/01/17 10:22:09;;;;;;;0.10;0.10;;;;;;;-0.09;100.00;96816.91;5054171;28;20247;-52
2024/01/17 10:24:55;;;;;;;0.00;0.00;;;;;;;-0.02;100.00;96804.34;5050607;28;20312;-52
2024/01/17 10:27:42;;;;;;;0.10;0.10;;;;;;;-0.16;100.00;96797.38;5013041;28;20218;-52
2024/01/17 10:30:30;;;;;;;0.10;0.10;;;;;;;0.17;100.00;96791.09;5014316;28;20197;-52
2024/01/17 10:33:17;;;;;;;0.10;0.10;;;;;;;-0.04;100.00;96785.41;5014317;28;20205;-52
2024/01/17 10:36:07;;;;;;;0.10;0.10;;;;;;;0.12;100.00;96772.31;5036327;28;20197;-52
2024/01/17 10:39:03;;;;;;;0.10;0.10;;;;;;;0.40;100.00;96774.09;5053707;28;20200;-52
2024/01/17 10:41:51;;;;;;;0.10;0.10;;;;;;;0.35;100.00;96760.50;5053877;28;20215;-52
2024/01/17 10:44:37;;;;;;;0.10;0.10;;;;;;;0.07;100.00;96754.38;5052592;28;20187;-52
2024/01/17 10:47:26;;;;;;;0.10;0.10;;;;;;;0.18;100.00;96745.91;5013865;28;20276;-52
2024/01/17 10:50:13;;;;;;;0.10;0.10;;;;;;;0.31;100.00;96739.03;5013971;28;20197;-52
2024/01/17 10:53:04;;;;;;;0.10;0.10;;;;;;;0.29;100.00;96730.50;5014062;28;20189;-53
2024/01/17 10:55:55;;;;;;;0.10;0.10;;;;;;;0.41;100.00;96721.09;5022872;28;20193;-52
2024/01/17 10:58:43;;;;;;;0.10;0.10;;;;;;;0.27;100.00;96711.50;5032290;28;20196;-52
2024/01/17 11:01:35;;;;;;;0.10;0.10;;;;;;;0.30;100.00;96708.75;5033579;28;20275;-53
2024/01/17 11:04:27;;;;;;;0.10;0.10;;;;;;;0.17;100.00;96702.59;5047380;28;20286;-52
2024/01/17 11:07:16;;;;;;;0.10;0.10;;;;;;;0.21;100.00;96689.31;5019157;28;20302;-52
2024/01/17 11:10:05;;;;;;;0.00;0.00;;;;;;;0.12;100.00;96696.88;5053138;28;20259;-53
2024/01/17 11:12:53;;;;;;;0.10;0.10;;;;;;;0.09;100.00;96684.03;5051959;28;20670;-52
2024/01/17 11:15:41;;;;;;;0.10;0.10;;;;;;;-0.10;100.00;96676.53;5038790;28;20202;-52
2024/01/17 11:18:30;;;;;;;0.10;0.10;;;;;;;0.12;100.00;96676.88;5013413;28;20197;-52
2024/01/17 11:21:20;;;;;;;0.10;0.10;;;;;;;0.64;100.00;96670.13;5013457;28;20205;-52
2024/01/17 11:24:14;;;;;;;0.10;0.10;;;;;;;0.46;100.00;96662.56;5013506;28;20217;-52
2024/01/17 11:27:09;;;;;;;0.10;0.10;;;;;;;0.52;100.00;96661.34;5049304;28;20196;-52
2024/01/17 11:30:08;;;;;;;0.00;0.00;;;;;;;0.46;100.00;96656.53;5052172;28;20180;-52
2024/01/17 11:33:01;;;;;;;0.10;0.10;;;;;;;0.47;100.00;96648.63;5037742;28;20187;-52
2024/01/17 11:35:50;;;;;;;0.10;0.10;;;;;;;0.28;100.00;96640.31;5036567;28;20704;-53
2024/01/17 11:38:39;;;;;;;0.10;0.10;;;;;;;0.35;100.00;96639.00;5013319;28;20206;-52
2024/01/17 11:41:26;;;;;;;0.10;0.10;;;;;;;0.54;100.00;96636.88;5013015;28;20318;-52
2024/01/17 11:44:15;;;;;;;0.10;0.10;;;;;;;0.84;100.00;96622.78;5012063;28;20206;-52
2024/01/17 11:47:02;;;;;;;0.10;0.10;;;;;;;0.99;100.00;96621.78;5048929;28;20200;-53
2024/01/17 11:49:49;;;;;;;0.10;0.10;;;;;;;0.84;100.00;96617.59;5052511;28;20208;-52
2024/01/17 11:52:37;;;;;;;0.10;0.10;;;;;;;0.70;100.00;96609.84;5052741;28;20196;-52
2024/01/17 11:55:32;;;;;;;0.10;0.10;;;;;;;0.50;100.00;96609.38;5043721;28;20268;-53
2024/01/17 11:58:22;;;;;;;0.10;0.10;;;;;;;0.37;100.00;96600.69;5011749;28;20680;-52
2024/01/17 12:01:12;;;;;;;0.00;0.00;;;;;;;0.70;100.00;96589.03;5013172;28;20264;-53
2024/01/17 12:03:59;;;;;;;0.10;0.10;;;;;;;1.17;100.00;96585.84;5029418;28;20329;-52
2024/01/17 12:06:49;;;;;;;0.10;0.10;;;;;;;1.10;100.00;96582.81;5048167;28;20674;-52
2024/01/17 12:09:37;;;;;;;0.10;0.10;;;;;;;0.90;100.00;96566.84;5052409;28;20239;-53
2024/01/17 12:12:26;;;;;;;0.10;0.10;;;;;;;0.59;100.00;96560.25;5051309;28;20258;-53
2024/01/17 12:15:13;;;;;;;0.10;0.10;;;;;;;1.35;100.00;96550.69;5047446;28;20235;-53
2024/01/17 12:18:03;;;;;;;0.00;0.00;;;;;;;1.61;100.00;96541.03;5013005;28;20241;-52
2024/01/17 12:20:51;;;;;;;0.10;0.10;;;;;;;1.06;100.00;96534.47;5012849;28;20197;-53
2024/01/17 12:23:38;;;;;;;0.10;0.10;;;;;;;1.22;100.00;96528.19;5012890;28;20272;-52
2024/01/17 12:26:26;;;;;;;0.10;0.10;;;;;;;1.32;100.00;96521.38;5037443;28;20204;-52
2024/01/17 12:29:16;;;;;;;0.10;0.10;;;;;;;1.06;100.00;96513.59;5050914;28;20216;-52
2024/01/17 12:32:03;;;;;;;0.00;0.00;;;;;;;1.06;100.00;96497.97;5052474;28;20226;-52
2024/01/17 12:34:51;;;;;;;0.10;0.10;;;;;;;1.52;100.00;96497.34;5052419;28;20690;-52
2024/01/17 12:37:38;;;;;;;0.10;0.10;;;;;;;0.92;100.00;96477.22;5012694;28;20201;-52
2024/01/17 12:40:24;;;;;;;0.10;0.10;;;;;;;1.17;100.00;96467.72;5012738;28;20189;-52
2024/01/17 12:43:12;;;;;;;0.07;0.07;;;;;;;1.51;100.00;96453.13;5015226;28;20197;-52
2024/01/17 12:46:01;;;;;;;0.07;0.07;;;;;;;1.07;100.00;96436.25;5024542;28;20205;-53
2024/01/17 12:48:56;;;;;;;0.10;0.10;;;;;;;1.00;100.00;96425.44;5035930;28;20216;-53
2024/01/17 12:51:43;;;;;;;0.10;0.10;;;;;;;0.79;100.00;96419.94;5036049;28;20661;-53
2024/01/17 12:54:31;;;;;;;0.10;0.10;;;;;;;0.57;100.00;96409.31;5035870;28;20194;-52
2024/01/17 12:57:18;;;;;;;0.10;0.10;;;;;;;1.56;100.00;96412.75;5053634;28;20670;-52
2024/01/17 13:00:10;;;;;;;0.10;0.10;;;;;;;1.48;100.00;96419.47;5055905;28;20234;-52
2024/01/17 13:02:59;;;;;;;0.10;0.10;;;;;;;1.37;100.00;96404.59;5038645;28;20224;-52